Metar Cercanos

 

LEPA - Palma De Mallorc, Spain
Distance from station: ONO 38km
Actualización: Tue, 06-Dec-2022 7:00pm CET
Few Clouds
Few Clouds
 Viento del NE
Viento: NE 4 km/h
Temperatura: 14°C
Rocío: 13°C
Humedad: 94%
Barómetro: 1014 hPa
Clouds: Few Clouds
Visibility: 10 km
Cloud details: Few Clouds 549 m
2022/12/06 18:00 LEPA 061800Z 04002KT 9999 FEW018 14/13 Q1014 NOSIG
LEMH - Mahon/Menorca Is, Spain
Distance from station: ENE 105km
Actualización: Tue, 06-Dec-2022 7:00pm CET
Despejado
Despejado
 Viento del N
Viento: N 9 km/h
Temperatura: 13°C
Rocío: 12°C
Humedad: 94%
Barómetro: 1014 hPa
Resumen: Despejado
Visibility: greater than 10 km
2022/12/06 18:00 LEMH 061800Z 36005KT CAVOK 13/12 Q1014
 
LEIB - Ibiza/Es Codola, Spain
Distance from station: OSO 165km
Actualización: Tue, 06-Dec-2022 7:00pm CET
Few Clouds
Few Clouds
 Viento del NNE
Viento: NNE 11 km/h
Temperatura: 15°C
Rocío: 13°C
Humedad: 88%
Barómetro: 1014 hPa
Clouds: Few Clouds
Visibility: 10 km
Cloud details: Few Clouds 610 m
2022/12/06 18:00 LEIB 061800Z 02006KT 9999 FEW020 15/13 Q1014 NOSIG
LEBL - Barcelona Airpor, Spain
Distance from station: NNO 225km
Actualización: Tue, 06-Dec-2022 7:00pm CET
Few Clouds
Few Clouds
 Viento del varies
Viento: varies 4 km/h
Temperatura: 11°C
Rocío: 9°C
Humedad: 88%
Barómetro: 1015 hPa
Clouds: Few Clouds
Visibility: 10 km
Cloud details: Few Clouds 457 m
2022/12/06 18:00 LEBL 061800Z VRB02KT 9999 FEW015 11/09 Q1015 NOSIG
 
LEVC - Valencia (civ/Mi, Spain
Distance from station: NO 188km
Actualización: Tue, 06-Dec-2022 7:00pm CET
Despejado
Despejado
 Viento del varies
Viento: varies 4 km/h
Temperatura: 14°C
Rocío: 12°C
Humedad: 88%
Barómetro: 1015 hPa
Resumen: Despejado
Visibility: greater than 10 km
2022/12/06 18:00 LEVC 061800Z VRB02KT CAVOK 14/12 Q1015 NOSIG
LEGE - Gerona/Costa Bra, Spain
Distance from station: N 276km
Actualización: Tue, 06-Dec-2022 7:00pm CET
Despejado
Despejado
 Viento del calm
Viento: Calma
Temperatura: 10°C
Rocío: 9°C
Humedad: 94%
Barómetro: 1015 hPa
Resumen: Despejado
Visibility: greater than 10 km
2022/12/06 18:00 LEGE 061800Z 00000KT CAVOK 10/09 Q1015
 
LEAL - Alicante/El Alte, Spain
Distance from station: OSO 344km
Actualización: Tue, 06-Dec-2022 7:00pm CET
Few Clouds
Few Clouds
 Viento del calm
Viento: Calma
Temperatura: 15°C
Rocío: 14°C
Humedad: 94%
Barómetro: 1015 hPa
Clouds: Few Clouds
Visibility: 10 km
Cloud details: Few Clouds 549 m
2022/12/06 18:00 LEAL 061800Z 00000KT 9999 FEW018 15/14 Q1015 NOSIG
LEAM - Almeria Airport, Spain
Distance from station: SSO 56km
Actualización: Tue, 06-Dec-2022 7:00pm CET
Few Clouds
Few Clouds
 Viento del E
Viento: E 9 km/h
Temperatura: 16°C
Rocío: 14°C
Humedad: 88%
Barómetro: 1015 hPa
Clouds: Few Clouds
Visibility: 10 km
Cloud details: Few Clouds 366 m
2022/12/06 18:00 LEAM 061800Z 08005KT 9999 FEW012 16/14 Q1015
 
LEZG - Zaragoza (mil/Ci, Spain
Distance from station: NO 431km
Actualización: Tue, 06-Dec-2022 7:00pm CET
Mist, Cubierto
Mist, Cubierto
 Viento del O
Viento: O 17 km/h
Temperatura: 9°C
Sensación frio: 7°C
Rocío: 8°C
Humedad: 94%
Barómetro: 1016 hPa
Resumen: Mist
Clouds: Cubierto
Visibility: 4 km
Cloud details: Cubierto 152 m
2022/12/06 18:00 LEZG 061800Z 27009KT 4000 BR OVC005 09/08 Q1016
LEMD - Madrid/Barajas, Spain
Distance from station: ONO 234km
Actualización: Tue, 06-Dec-2022 7:00pm CET
Cubierto
Cubierto
 Viento del varies
Viento: varies 2 km/h
Temperatura: 11°C
Rocío: 9°C
Humedad: 88%
Barómetro: 1016 hPa
Clouds: Cubierto
Visibility: 10 km
Cloud details: Cubierto 2042 m
2022/12/06 18:00 LEMD 061800Z VRB01KT 9999 OVC067 11/09 Q1016 NOSIG
 
LEGR - Granada Airport, Spain
Distance from station: OSO 62km
Actualización: Tue, 06-Dec-2022 7:00pm CET
Muy nuboso
Muy nuboso
 Viento del SO
Viento: SO 7 km/h
Temperatura: 13°C
Rocío: 11°C
Humedad: 88%
Barómetro: 1017 hPa
Clouds: Muy nuboso
Visibility: 10 km
Cloud details: Few Clouds 610 m
Parcialmente nuboso 1158 m
Muy nuboso 1829 m
2022/12/06 18:00 LEGR 061800Z 23004KT 190V280 9999 FEW020 SCT038 BKN060 13/11 Q1017
LEMG - Malaga (civ/Mil), Spain
Distance from station: OSO 227km
Actualización: Tue, 06-Dec-2022 7:00pm CET
Parcialmente nuboso
Parcialmente nuboso
 Viento del ONO
Viento: ONO 4 km/h
Temperatura: 16°C
Rocío: 13°C
Humedad: 83%
Barómetro: 1015 hPa
Clouds: Parcialmente nuboso
Visibility: 10 km
Cloud details: Parcialmente nuboso 1219 m
2022/12/06 18:00 LEMG 061800Z 29002KT 9999 SCT040 16/13 Q1015 NOSIG
 
LEZL - Sevilla (civ/Mil, Spain
Distance from station: S 318km
Actualización: Tue, 06-Dec-2022 7:00pm CET
Despejado
Despejado
 Viento del S
Viento: S 6 km/h
Temperatura: 16°C
Rocío: 13°C
Humedad: 83%
Barómetro: 1016 hPa
Resumen: Despejado
Visibility: greater than 10 km
2022/12/06 18:00 LEZL 061800Z 17003KT CAVOK 16/13 Q1016 NOSIG
LEVT - Vitoria, Spain
Distance from station: NO 226km
Actualización: Tue, 06-Dec-2022 7:00pm CET
Cubierto
Cubierto
 Viento del SSO
Viento: SSO 6 km/h
Temperatura: 8°C
Rocío: 7°C
Humedad: 93%
Barómetro: 1016 hPa
Clouds: Cubierto
Visibility: 8 km
Cloud details: Cubierto 2103 m
2022/12/06 18:00 LEVT 061800Z 21003KT 8000 OVC069 08/07 Q1016
 
LEBB - Bilbao/Sondica, Spain
Distance from station: NNO 235km
Actualización: Tue, 06-Dec-2022 7:00pm CET
Despejado
Despejado
 Viento del calm
Viento: Calma
Temperatura: 13°C
Rocío: 11°C
Humedad: 88%
Barómetro: 1016 hPa
Resumen: Despejado
Visibility: greater than 10 km
2022/12/06 18:00 LEBB 061800Z 00000KT CAVOK 13/11 Q1016 NOSIG
LESO - San Sebastian/Fu, Spain
Distance from station: N 231km
Actualización: Tue, 06-Dec-2022 7:00pm CET
Despejado
Despejado
 Viento del varies
Viento: varies 4 km/h
Temperatura: 13°C
Rocío: 11°C
Humedad: 88%
Barómetro: 1016 hPa
Resumen: Despejado
Visibility: greater than 10 km
2022/12/06 18:00 LESO 061800Z VRB02KT CAVOK 13/11 Q1016
 
LEVD - Valladolid(Mil/C, Spain
Distance from station: ONO 239km
Actualización: Tue, 06-Dec-2022 7:00pm CET
Muy nuboso
Muy nuboso
 Viento del varies
Viento: varies 2 km/h
Temperatura: 9°C
Rocío: 8°C
Humedad: 94%
Barómetro: 1016 hPa
Clouds: Muy nuboso
Visibility: 10 km
Cloud details: Muy nuboso 1372 m
2022/12/06 18:00 LEVD 061800Z VRB01KT 9999 BKN045 09/08 Q1016
LESA - Salamanca (civ/M, Spain
Distance from station: ONO 349km
Actualización: Tue, 06-Dec-2022 7:00pm CET
Muy nuboso
Muy nuboso
 Viento del E
Viento: E 6 km/h
Temperatura: 9°C
Rocío: 8°C
Humedad: 94%
Barómetro: 1016 hPa
Clouds: Muy nuboso
Visibility: 10 km
Cloud details: Few Clouds 244 m
Muy nuboso 488 m
2022/12/06 18:00 LESA 061800Z 10003KT 9999 FEW008 BKN016 09/08 Q1016
 
LEXJ - Santander/Paraya, Spain
Distance from station: NNO 247km
Actualización: Tue, 06-Dec-2022 7:00pm CET
Muy nuboso
Muy nuboso
 Viento del SO
Viento: SO 9 km/h
Temperatura: 14°C
Rocío: 9°C
Humedad: 72%
Barómetro: 1016 hPa
Clouds: Muy nuboso
Visibility: 10 km
Cloud details: Muy nuboso 488 m
2022/12/06 18:00 LEXJ 061800Z 22005KT 9999 BKN016 14/09 Q1016
LEAS - Asturias/Aviles, Spain
Distance from station: NO 214km
Actualización: Tue, 06-Dec-2022 7:00pm CET
Muy nuboso
Muy nuboso
 Viento del calm
Viento: Calma
Temperatura: 12°C
Rocío: 10°C
Humedad: 88%
Barómetro: 1016 hPa
Clouds: Muy nuboso
Visibility: 10 km
Cloud details: Muy nuboso 2195 m
2022/12/06 18:00 LEAS 061800Z 00000KT 9999 BKN072 12/10 Q1016 NOSIG
 
LECO - La Coruna/Alvedr, Spain
Distance from station: ONO 222km
Actualización: Tue, 06-Dec-2022 7:00pm CET
Muy nuboso
Muy nuboso
 Viento del O
Viento: O 2 km/h
Temperatura: 13°C
Rocío: 11°C
Humedad: 88%
Barómetro: 1016 hPa
Clouds: Muy nuboso
Visibility: 10 km
Cloud details: Few Clouds 305 m
Muy nuboso 610 m
2022/12/06 18:00 LECO 061800Z 27001KT 9999 FEW010 BKN020 13/11 Q1016 NOSIG
LEVX - Vigo/Peinador, Spain
Distance from station: O 214km
Actualización: Tue, 06-Dec-2022 7:00pm CET
Parcialmente nuboso
Parcialmente nuboso
 Viento del varies
Viento: varies 4 km/h
Temperatura: 11°C
Rocío: 10°C
Humedad: 94%
Barómetro: 1015 hPa
Clouds: Parcialmente nuboso
Visibility: 10 km
Cloud details: Parcialmente nuboso 1189 m
2022/12/06 18:00 LEVX 061800Z VRB02KT 9999 SCT039 11/10 Q1015 NOSIG